This is the latest recevied weather packets stored in our database for station/object I1SXT-13. If no packets are shown the sender has not sent any weather packets the latest 10 day(s).
| Time | Temp. | Humidity | Pressure | Rain* | Wind** | Luminosity | Snow |
|---|---|---|---|---|---|---|---|
| 1777683567 | 13.33° C | 48% | 1027 hPa | 0 mm | - | - | - |
| 1777683269 | 12.78° C | 49% | 1027.3 hPa | 0 mm | - | - | - |
| 1777682965 | 12.78° C | 50% | 1027.4 hPa | 0 mm | - | - | - |
| 1777682668 | 13.33° C | 52% | 1027.5 hPa | 0 mm | - | - | - |
| 1777682364 | 13.33° C | 49% | 1028.1 hPa | 0 mm | - | - | - |
| 1777682067 | 13.33° C | 47% | 1026.9 hPa | 0 mm | - | - | - |
| 1777681770 | 12.78° C | 49% | 1027.5 hPa | 0 mm | - | - | - |
| 1777681466 | 12.78° C | 51% | 1027.3 hPa | 0 mm | - | - | - |
| 1777681169 | 12.78° C | 49% | 1027.2 hPa | 0 mm | - | - | - |
| 1777680865 | 12.78° C | 50% | 1027.4 hPa | 0 mm | - | - | - |
| 1777680568 | 12.78° C | 53% | 1027.9 hPa | 0 mm | - | - | - |
| 1777680264 | 13.33° C | 49% | 1027.5 hPa | 0 mm | - | - | - |
| 1777679967 | 12.78° C | 50% | 1027.3 hPa | 0 mm | - | - | - |
| 1777679670 | 12.22° C | 52% | 1027.2 hPa | 0 mm | - | - | - |
| 1777679365 | 11.67° C | 57% | 1027.7 hPa | 0 mm | - | - | - |
| 1777679068 | 11.67° C | 58% | 1027.7 hPa | 0 mm | - | - | - |
| 1777678467 | 13.33° C | 48% | 1027.7 hPa | 0 mm | - | - | - |
| 1777678163 | 13.89° C | 46% | 1027.5 hPa | 0 mm | - | - | - |
| 1777677866 | 13.89° C | 46% | 1028.2 hPa | 0 mm | - | - | - |
| 1777677569 | 13.89° C | 46% | 1027.7 hPa | 0 mm | - | - | - |
| 1777677265 | 13.89° C | 47% | 1027.5 hPa | 0 mm | - | - | - |
| 1777676968 | 13.89° C | 46% | 1027.3 hPa | 0 mm | - | - | - |
| 1777676367 | 13.89° C | 47% | 1027.3 hPa | 0 mm | - | - | - |
| 1777676070 | 13.89° C | 47% | 1027.6 hPa | 0 mm | - | - | - |
| 1777675766 | 13.89° C | 46% | 1027.1 hPa | 0 mm | - | - | - |
* Rain since midnight (hover to see other rain measurements)
** Current wind speed in m/s (hover to see current wind gust speed)